Time;durP1;ratioP1;P1;durP2;ratioP2;P2;SDS_P1;SDS_P2;PMS_P1;PMS_P2;Temp;Humidity;BMP_temperature;BMP_pressure;BME280_temperature;BME280_humidity;BME280_pressure;Samples;Min_cycle;Max_cycle;Signal;HPM_P1;HPM_P2
2023/04/30 00:02:14;;;;;;;;;;;;;;;21.11;42.23;102363.13;5134868;28;19915;-69
2023/04/30 00:04:39;;;;;;;;;;;;;;;21.10;42.46;102360.56;5133397;28;19916;-70
2023/04/30 00:07:04;;;;;;;;;;;;;;;21.08;42.21;102357.16;5129404;28;19993;-70
2023/04/30 00:09:30;;;;;;;;;;;;;;;21.07;42.15;102358.13;5132597;27;20374;-70
2023/04/30 00:11:55;;;;;;;;;;;;;;;21.05;42.24;102361.00;5131690;27;19916;-70
2023/04/30 00:14:20;;;;;;;;;;;;;;;21.04;42.18;102350.34;5132965;27;19923;-70
2023/04/30 00:16:45;;;;;;;;;;;;;;;21.02;42.35;102363.13;5133302;27;19923;-70
2023/04/30 00:19:10;;;;;;;;;;;;;;;21.01;42.22;102358.75;5135133;27;19923;-70
2023/04/30 00:21:35;;;;;;;;;;;;;;;21.00;42.47;102365.16;5133697;27;19919;-70
2023/04/30 00:24:01;;;;;;;;;;;;;;;20.99;42.22;102363.47;5139881;27;19916;-70
2023/04/30 00:26:26;;;;;;;;;;;;;;;20.96;42.48;102364.59;5135887;27;20433;-70
2023/04/30 00:28:51;;;;;;;;;;;;;;;20.94;42.41;102362.03;5127669;27;19991;-70
2023/04/30 00:31:16;;;;;;;;;;;;;;;20.95;42.57;102362.91;5140190;27;19958;-70
2023/04/30 00:33:41;;;;;;;;;;;;;;;20.94;42.12;102369.28;5130911;27;19912;-70
2023/04/30 00:36:07;;;;;;;;;;;;;;;20.92;42.43;102365.88;5120066;27;19923;-70
2023/04/30 00:38:32;;;;;;;;;;;;;;;20.90;42.18;102357.94;5135645;27;19933;-70
2023/04/30 00:40:57;;;;;;;;;;;;;;;20.90;42.33;102359.78;5132780;27;19918;-69
2023/04/30 00:43:22;;;;;;;;;;;;;;;20.88;42.20;102354.50;5128431;27;19915;-69
2023/04/30 00:45:48;;;;;;;;;;;;;;;20.88;42.45;102356.34;5133407;27;19911;-70
2023/04/30 00:48:13;;;;;;;;;;;;;;;20.86;42.29;102352.97;5130777;27;19924;-70
2023/04/30 00:50:38;;;;;;;;;;;;;;;20.85;42.45;102364.75;5127609;27;19918;-70
2023/04/30 00:53:03;;;;;;;;;;;;;;;20.84;42.24;102363.06;5116918;27;19927;-71
2023/04/30 00:55:28;;;;;;;;;;;;;;;20.82;42.35;102363.22;5133886;27;20524;-70
2023/04/30 00:57:54;;;;;;;;;;;;;;;20.81;42.44;102364.19;5136998;27;19922;-70
2023/04/30 01:00:19;;;;;;;;;;;;;;;20.81;42.41;102363.34;5132947;27;19926;-69
2023/04/30 01:02:44;;;;;;;;;;;;;;;20.79;42.45;102357.25;5127899;27;19975;-69
2023/04/30 01:05:09;;;;;;;;;;;;;;;20.78;42.68;102366.34;5134576;27;19975;-70
2023/04/30 01:07:35;;;;;;;;;;;;;;;20.76;42.27;102363.78;5131967;27;19926;-70
2023/04/30 01:10:00;;;;;;;;;;;;;;;20.75;42.42;102364.78;5131949;27;19916;-70
2023/04/30 01:12:34;;;;;;;;;;;;;;;20.75;42.45;102380.16;5131161;27;19916;-71
2023/04/30 01:15:16;;;;;;;;;;;;;;;20.73;42.39;102372.19;5132062;27;19955;-70
2023/04/30 01:17:44;;;;;;;;;;;;;;;20.70;42.48;102376.03;5113858;28;20349;-70
2023/04/30 01:20:10;;;;;;;;;;;;;;;20.70;42.44;102372.47;5135211;27;20348;-70
2023/04/30 01:22:37;;;;;;;;;;;;;;;20.69;42.25;102376.19;5133232;27;19923;-70
2023/04/30 01:25:06;;;;;;;;;;;;;;;20.68;42.23;102383.41;5140517;27;19916;-70
2023/04/30 01:27:50;;;;;;;;;;;;;;;20.66;42.50;102381.88;5132394;27;19934;-70
2023/04/30 01:30:16;;;;;;;;;;;;;;;20.65;42.49;102380.19;5136397;27;19915;-70
2023/04/30 01:32:41;;;;;;;;;;;;;;;20.64;42.33;102375.75;5125815;27;19915;-70
2023/04/30 01:35:06;;;;;;;;;;;;;;;20.62;42.32;102381.31;5131745;27;19919;-70
2023/04/30 01:37:40;;;;;;;;;;;;;;;20.62;42.55;102380.47;5134045;27;19919;-70
2023/04/30 01:40:08;;;;;;;;;;;;;;;20.60;42.33;102383.31;5114694;27;19923;-70
2023/04/30 01:42:43;;;;;;;;;;;;;;;20.59;42.11;102383.44;5129580;27;19912;-70
2023/04/30 01:45:12;;;;;;;;;;;;;;;20.58;42.53;102387.16;5134035;27;19923;-70
2023/04/30 01:47:40;;;;;;;;;;;;;;;20.56;42.48;102381.91;5116474;27;19950;-70
2023/04/30 01:50:24;;;;;;;;;;;;;;;20.55;42.25;102380.16;5132522;27;19930;-70
2023/04/30 01:52:50;;;;;;;;;;;;;;;20.54;42.20;102383.88;5135721;27;19946;-71
2023/04/30 01:55:27;;;;;;;;;;;;;;;20.54;42.50;102383.03;5131383;27;19920;-70
2023/04/30 01:57:52;;;;;;;;;;;;;;;20.52;42.22;102390.41;5134330;27;19989;-70
2023/04/30 02:00:18;;;;;;;;;;;;;;;20.52;42.45;102382.28;5132568;27;19911;-70
2023/04/30 02:02:43;;;;;;;;;;;;;;;20.50;42.41;102382.47;5130898;27;20641;-70
2023/04/30 02:05:08;;;;;;;;;;;;;;;20.49;42.27;102388.88;5133890;27;19938;-70
2023/04/30 02:07:41;;;;;;;;;;;;;;;20.47;42.30;102380.00;5132264;27;19916;-70
2023/04/30 02:10:06;;;;;;;;;;;;;;;20.46;42.22;102389.09;5130810;27;20010;-70
2023/04/30 02:12:31;;;;;;;;;;;;;;;20.45;42.44;102387.41;5132258;27;19915;-70
2023/04/30 02:14:57;;;;;;;;;;;;;;;20.02;42.15;102318.47;5114924;27;20451;-70
2023/04/30 02:17:22;;;;;;;;;;;;;;;20.43;42.20;102398.38;5131275;27;19924;-70
2023/04/30 02:19:47;;;;;;;;;;;;;;;20.41;42.23;102400.34;5138222;27;19926;-70
2023/04/30 02:22:12;;;;;;;;;;;;;;;20.41;42.24;102400.34;5131980;27;19916;-70
2023/04/30 02:24:37;;;;;;;;;;;;;;;20.40;42.34;102400.50;5136969;27;19919;-70
2023/04/30 02:27:02;;;;;;;;;;;;;;;20.39;42.22;102401.47;5134309;27;20416;-70
2023/04/30 02:29:28;;;;;;;;;;;;;;;20.37;42.23;102395.38;5130762;27;20598;-70
2023/04/30 02:31:53;;;;;;;;;;;;;;;20.36;42.19;102397.22;5132230;27;19912;-70
2023/04/30 02:34:18;;;;;;;;;;;;;;;20.36;42.41;102390.97;5130801;27;19915;-70
2023/04/30 02:36:43;;;;;;;;;;;;;;;20.34;42.33;102393.78;5129566;27;19938;-70
2023/04/30 02:39:08;;;;;;;;;;;;;;;20.33;42.48;102396.66;5114840;28;19912;-70
2023/04/30 02:41:33;;;;;;;;;;;;;;;20.31;42.26;102390.56;5134132;27;20352;-70
2023/04/30 02:43:59;;;;;;;;;;;;;;;20.31;42.23;102390.56;5130967;27;19922;-70
2023/04/30 02:46:24;;;;;;;;;;;;;;;20.29;42.27;102387.97;5134711;27;19915;-70
2023/04/30 02:48:49;;;;;;;;;;;;;;;20.29;42.32;102387.13;5131625;27;19915;-70
2023/04/30 02:51:14;;;;;;;;;;;;;;;20.27;42.41;102384.56;5138091;27;19950;-70
2023/04/30 02:53:40;;;;;;;;;;;;;;;20.26;42.20;102382.84;5137140;27;19918;-70
2023/04/30 02:56:05;;;;;;;;;;;;;;;20.25;42.16;102383.00;5130963;27;19915;-70
2023/04/30 02:58:30;;;;;;;;;;;;;;;20.23;42.27;102381.28;5134449;27;19916;-70
2023/04/30 03:00:56;;;;;;;;;;;;;;;20.23;42.33;102380.44;5130336;27;19912;-70
2023/04/30 03:03:21;;;;;;;;;;;;;;;20.21;42.50;102385.13;5131038;27;19959;-70
2023/04/30 03:05:46;;;;;;;;;;;;;;;20.20;42.42;102384.28;5130481;27;19912;-70
2023/04/30 03:08:11;;;;;;;;;;;;;;;20.19;42.54;102382.56;5132736;27;20296;-71
2023/04/30 03:10:37;;;;;;;;;;;;;;;20.17;42.41;102376.44;5128283;27;19933;-70
2023/04/30 03:13:02;;;;;;;;;;;;;;;20.17;42.39;102376.44;5132991;28;19933;-70
2023/04/30 03:15:27;;;;;;;;;;;;;;;20.15;42.32;102378.44;5133676;27;20019;-70
2023/04/30 03:17:52;;;;;;;;;;;;;;;20.14;42.40;102371.34;5134460;28;19931;-70
2023/04/30 03:20:17;;;;;;;;;;;;;;;20.13;42.42;102379.56;5139156;27;19912;-70
2023/04/30 03:22:42;;;;;;;;;;;;;;;20.13;42.13;102375.03;5130212;28;19975;-70
2023/04/30 03:25:08;;;;;;;;;;;;;;;20.11;42.23;102379.72;5131671;28;19937;-70
2023/04/30 03:27:33;;;;;;;;;;;;;;;20.10;42.09;102374.47;5132286;28;19918;-70
2023/04/30 03:29:58;;;;;;;;;;;;;;;20.10;42.11;102378.03;5130233;28;19920;-70
2023/04/30 03:32:24;;;;;;;;;;;;;;;20.09;42.17;102380.84;5130308;28;19923;-70
2023/04/30 03:34:49;;;;;;;;;;;;;;;20.06;42.24;102376.59;5130088;28;19932;-70
2023/04/30 03:37:14;;;;;;;;;;;;;;;20.06;42.20;102373.06;5132572;27;19919;-70
2023/04/30 03:39:40;;;;;;;;;;;;;;;20.05;42.38;102376.72;5129113;28;19912;-70
2023/04/30 03:42:05;;;;;;;;;;;;;;;20.03;42.15;102370.63;5135872;28;19912;-69
2023/04/30 03:44:30;;;;;;;;;;;;;;;20.03;42.19;102362.53;5131288;27;19947;-70
2023/04/30 03:46:55;;;;;;;;;;;;;;;20.01;42.28;102362.69;5118997;27;19916;-70
2023/04/30 03:49:20;;;;;;;;;;;;;;;20.00;42.42;102370.91;5137199;27;19930;-70
2023/04/30 03:51:46;;;;;;;;;;;;;;;19.98;42.16;102371.91;5134117;27;20014;-70
2023/04/30 03:54:11;;;;;;;;;;;;;;;19.98;42.16;102379.16;5139191;27;19911;-70
2023/04/30 03:56:36;;;;;;;;;;;;;;;19.96;42.15;102373.91;5134056;27;19923;-70
2023/04/30 03:59:01;;;;;;;;;;;;;;;19.95;42.05;102372.16;5132291;27;19912;-70
2023/04/30 04:01:28;;;;;;;;;;;;;;;19.95;42.15;102374.88;5135356;27;19922;-70
2023/04/30 04:03:53;;;;;;;;;;;;;;;19.93;42.30;102371.47;5135678;27;19923;-70
2023/04/30 04:06:18;;;;;;;;;;;;;;;19.93;42.07;102373.31;5133080;27;19916;-70
2023/04/30 04:08:43;;;;;;;;;;;;;;;19.92;42.27;102377.00;5133394;27;19966;-70
2023/04/30 04:11:09;;;;;;;;;;;;;;;19.91;42.09;102378.00;5134568;27;19927;-70
2023/04/30 04:13:34;;;;;;;;;;;;;;;19.90;42.11;102379.00;5128840;27;19916;-70
2023/04/30 04:15:59;;;;;;;;;;;;;;;19.89;42.35;102371.88;5137784;27;20283;-70
2023/04/30 04:18:25;;;;;;;;;;;;;;;19.87;42.34;102372.00;5135914;27;19959;-70
2023/04/30 04:20:50;;;;;;;;;;;;;;;19.87;42.10;102373.84;5140603;27;20379;-70
2023/04/30 04:23:15;;;;;;;;;;;;;;;19.85;42.46;102368.63;5132089;27;19943;-71
2023/04/30 04:25:43;;;;;;;;;;;;;;;19.85;42.21;102370.47;5133288;27;20138;-73
2023/04/30 04:28:08;;;;;;;;;;;;;;;19.83;42.21;102367.88;5134343;27;19915;-71
2023/04/30 04:30:33;;;;;;;;;;;;;;;19.83;42.19;102365.19;5133681;27;19911;-71
2023/04/30 04:32:59;;;;;;;;;;;;;;;19.82;42.42;102360.78;5132287;27;20534;-70
2023/04/30 04:35:24;;;;;;;;;;;;;;;19.82;42.54;102363.47;5134521;27;19920;-71
2023/04/30 04:37:49;;;;;;;;;;;;;;;19.81;42.29;102363.63;5133374;27;19923;-70
2023/04/30 04:40:15;;;;;;;;;;;;;;;19.80;42.43;102362.78;5133677;27;20356;-71
2023/04/30 04:42:40;;;;;;;;;;;;;;;19.80;42.42;102364.63;5139753;27;19920;-70
2023/04/30 04:45:06;;;;;;;;;;;;;;;19.80;42.56;102367.34;5135202;27;19950;-69
2023/04/30 04:47:32;;;;;;;;;;;;;;;19.79;42.46;102368.31;5136845;27;19915;-70
2023/04/30 04:49:57;;;;;;;;;;;;;;;19.79;42.65;102368.31;5137960;27;20362;-72
2023/04/30 04:52:22;;;;;;;;;;;;;;;19.78;42.61;102372.84;5131910;27;19922;-70
2023/04/30 04:54:47;;;;;;;;;;;;;;;19.78;43.03;102380.94;5134815;27;19918;-72
2023/04/30 04:57:13;;;;;;;;;;;;;;;19.78;43.22;102382.78;5132560;27;19912;-71
2023/04/30 04:59:38;;;;;;;;;;;;;;;19.79;43.57;102395.28;5132015;27;19915;-68
2023/04/30 05:02:03;;;;;;;;;;;;;;;19.77;43.58;102390.03;5132668;27;19943;-71
2023/04/30 05:04:29;;;;;;;;;;;;;;;19.78;43.36;102393.59;5132447;27;19967;-72
2023/04/30 05:06:54;;;;;;;;;;;;;;;19.78;43.73;102394.44;5132168;27;19943;-70
2023/04/30 05:09:19;;;;;;;;;;;;;;;19.78;43.47;102391.75;5138004;27;19962;-71
2023/04/30 05:11:45;;;;;;;;;;;;;;;19.78;43.28;102391.75;5132719;27;19970;-70
2023/04/30 05:14:10;;;;;;;;;;;;;;;19.77;43.55;102394.59;5138046;27;19926;-69
2023/04/30 05:16:35;;;;;;;;;;;;;;;19.78;43.78;102404.38;5136186;27;19947;-70
2023/04/30 05:19:00;;;;;;;;;;;;;;;19.77;43.80;102400.00;5131101;27;19915;-69
2023/04/30 05:21:28;;;;;;;;;;;;;;;19.77;43.93;102402.69;5134346;27;19911;-73
2023/04/30 05:23:53;;;;;;;;;;;;;;;19.76;43.74;102401.00;5132749;27;20269;-72
2023/04/30 05:26:18;;;;;;;;;;;;;;;19.77;43.52;102397.28;5129994;27;19922;-71
2023/04/30 05:28:44;;;;;;;;;;;;;;;19.77;43.82;102400.84;5132116;27;19920;-70
2023/04/30 05:31:09;;;;;;;;;;;;;;;19.76;43.74;102392.88;5136020;27;19915;-68
2023/04/30 05:33:35;;;;;;;;;;;;;;;19.74;43.75;102390.31;5132823;27;19911;-69
2023/04/30 05:36:01;;;;;;;;;;;;;;;19.75;43.54;102399.25;5133425;27;20490;-69
2023/04/30 05:38:26;;;;;;;;;;;;;;;19.75;43.62;102396.56;5133918;27;19912;-70
2023/04/30 05:40:51;;;;;;;;;;;;;;;19.74;43.42;102390.31;5131392;27;19911;-68
2023/04/30 05:43:16;;;;;;;;;;;;;;;19.73;43.66;102391.31;5138208;27;19912;-71
2023/04/30 05:45:41;;;;;;;;;;;;;;;19.72;43.75;102409.34;5134414;27;19944;-71
2023/04/30 05:48:06;;;;;;;;;;;;;;;19.72;43.59;102406.66;5135332;27;19926;-71
2023/04/30 05:50:32;;;;;;;;;;;;;;;19.73;43.87;102415.59;5133325;27;19916;-71
2023/04/30 05:52:57;;;;;;;;;;;;;;;19.73;43.57;102410.19;5131184;27;19915;-72
2023/04/30 05:55:22;;;;;;;;;;;;;;;19.73;43.90;102415.59;5132759;27;19979;-71
2023/04/30 05:57:47;;;;;;;;;;;;;;;19.73;43.82;102421.00;5117618;27;19918;-72
2023/04/30 06:00:13;;;;;;;;;;;;;;;19.72;44.03;102427.38;5129736;27;20624;-69
2023/04/30 06:02:38;;;;;;;;;;;;;;;19.73;44.03;102426.38;5133487;27;20014;-70
2023/04/30 06:05:03;;;;;;;;;;;;;;;19.73;44.03;102434.47;5134237;27;19915;-70
2023/04/30 06:07:29;;;;;;;;;;;;;;;19.72;43.64;102438.19;5130337;27;19933;-70
2023/04/30 06:09:54;;;;;;;;;;;;;;;19.72;43.63;102432.78;5137277;27;19940;-71
2023/04/30 06:12:19;;;;;;;;;;;;;;;19.73;43.90;102431.78;5131382;27;19919;-69
2023/04/30 06:14:45;;;;;;;;;;;;;;;19.72;43.72;102438.19;5132716;27;19915;-69
2023/04/30 06:17:11;;;;;;;;;;;;;;;19.72;43.71;102433.63;5133938;27;20316;-68
2023/04/30 06:19:37;;;;;;;;;;;;;;;19.31;43.73;102363.59;5130752;27;19911;-69
2023/04/30 06:22:02;;;;;;;;;;;;;;;19.72;43.83;102446.28;5132838;27;19939;-68
2023/04/30 06:24:29;;;;;;;;;;;;;;;19.70;43.84;102430.19;5130787;27;19912;-69
2023/04/30 06:26:54;;;;;;;;;;;;;;;19.70;43.44;102430.19;5128828;27;19916;-69
2023/04/30 06:29:19;;;;;;;;;;;;;;;19.70;43.53;102441.00;5129996;27;19962;-68
2023/04/30 06:31:44;;;;;;;;;;;;;;;19.70;43.65;102440.16;5135319;27;19920;-69
2023/04/30 06:34:10;;;;;;;;;;;;;;;19.68;43.40;102440.28;5125115;27;19912;-69
2023/04/30 06:36:35;;;;;;;;;;;;;;;19.68;43.55;102443.00;5138326;27;20396;-69
2023/04/30 06:39:00;;;;;;;;;;;;;;;19.68;43.61;102444.84;5133826;27;19916;-68
2023/04/30 06:41:25;;;;;;;;;;;;;;;19.67;43.27;102446.69;5130196;27;20360;-68
2023/04/30 06:43:51;;;;;;;;;;;;;;;19.67;43.44;102444.00;5134989;27;19955;-69
2023/04/30 06:46:16;;;;;;;;;;;;;;;19.68;43.34;102444.84;5129649;27;19915;-68
2023/04/30 06:48:41;;;;;;;;;;;;;;;19.67;43.38;102443.16;5132473;27;19928;-69
2023/04/30 06:51:06;;;;;;;;;;;;;;;19.68;43.46;102440.28;5130527;27;19936;-68
2023/04/30 06:53:31;;;;;;;;;;;;;;;19.69;43.70;102441.16;5130235;27;19973;-69
2023/04/30 06:55:56;;;;;;;;;;;;;;;19.68;43.53;102447.53;5129726;27;19911;-68
2023/04/30 06:58:22;;;;;;;;;;;;;;;19.67;43.38;102441.28;5113542;27;19915;-69
2023/04/30 07:00:47;;;;;;;;;;;;;;;19.68;43.59;102436.75;5117580;28;19998;-68
2023/04/30 07:03:13;;;;;;;;;;;;;;;19.68;43.47;102443.00;5141356;27;20432;-68
2023/04/30 07:05:38;;;;;;;;;;;;;;;19.69;43.34;102438.44;5134882;27;19926;-68
2023/04/30 07:08:04;;;;;;;;;;;;;;;19.69;43.59;102433.06;5133914;27;19933;-69
2023/04/30 07:10:30;;;;;;;;;;;;;;;19.68;43.26;102440.28;5131150;27;19937;-69
2023/04/30 07:12:55;;;;;;;;;;;;;;;19.69;43.53;102439.31;5131487;27;19916;-69
2023/04/30 07:15:20;;;;;;;;;;;;;;;19.70;43.51;102442.84;5131895;27;19945;-69
2023/04/30 07:17:45;;;;;;;;;;;;;;;19.69;43.35;102438.44;5130384;27;19973;-69
2023/04/30 07:20:13;;;;;;;;;;;;;;;19.70;43.30;102434.75;5130010;28;20292;-69
2023/04/30 07:22:38;;;;;;;;;;;;;;;19.71;43.44;102441.88;5134716;27;19915;-69
2023/04/30 07:25:04;;;;;;;;;;;;;;;19.70;43.18;102440.16;5131675;28;20018;-69
2023/04/30 07:27:29;;;;;;;;;;;;;;;19.71;43.50;102439.19;5131027;28;19920;-69
2023/04/30 07:29:54;;;;;;;;;;;;;;;19.71;43.23;102440.03;5128828;28;19934;-69
2023/04/30 07:32:20;;;;;;;;;;;;;;;19.71;43.04;102440.03;5133580;28;20283;-68
2023/04/30 07:34:45;;;;;;;;;;;;;;;19.71;43.23;102441.88;5123586;28;19911;-68
2023/04/30 07:37:10;;;;;;;;;;;;;;;19.71;43.18;102442.72;5137771;28;20345;-68
2023/04/30 07:39:36;;;;;;;;;;;;;;;19.71;43.01;102448.13;5130093;28;19922;-68
2023/04/30 07:42:01;;;;;;;;;;;;;;;19.72;43.20;102444.44;5129235;28;19943;-68
2023/04/30 07:44:26;;;;;;;;;;;;;;;19.72;43.37;102449.81;5132859;28;19912;-68
2023/04/30 07:46:52;;;;;;;;;;;;;;;19.71;43.11;102450.81;5110862;28;19919;-70
2023/04/30 07:49:17;;;;;;;;;;;;;;;19.73;43.04;102439.88;5132517;27;19919;-69
2023/04/30 07:51:42;;;;;;;;;;;;;;;19.73;43.35;102442.59;5131384;27;19911;-69
2023/04/30 07:54:07;;;;;;;;;;;;;;;19.75;43.26;102450.53;5131250;28;19923;-69
2023/04/30 07:56:32;;;;;;;;;;;;;;;19.72;42.93;102447.13;5128929;28;19915;-69
2023/04/30 07:58:58;;;;;;;;;;;;;;;19.73;43.22;102454.22;5130997;27;19949;-69
2023/04/30 08:01:23;;;;;;;;;;;;;;;19.73;43.15;102450.69;5130223;28;19918;-69
2023/04/30 08:03:48;;;;;;;;;;;;;;;19.73;43.22;102445.28;5134231;28;19915;-69
2023/04/30 08:06:13;;;;;;;;;;;;;;;19.73;43.05;102442.59;5133555;28;19912;-69
2023/04/30 08:08:38;;;;;;;;;;;;;;;19.73;42.97;102451.53;5130863;27;19943;-69
2023/04/30 08:11:04;;;;;;;;;;;;;;;19.75;42.99;102453.22;5134761;28;20284;-69
2023/04/30 08:13:29;;;;;;;;;;;;;;;19.74;43.06;102449.69;5131025;28;19937;-69
2023/04/30 08:15:54;;;;;;;;;;;;;;;19.75;43.13;102456.78;5128275;28;20627;-70
2023/04/30 08:18:20;;;;;;;;;;;;;;;19.75;42.96;102447.84;5134615;27;19924;-69
2023/04/30 08:20:45;;;;;;;;;;;;;;;19.75;43.16;102453.22;5130549;28;20527;-69
2023/04/30 08:23:10;;;;;;;;;;;;;;;19.76;43.12;102452.25;5127255;27;19926;-69
2023/04/30 08:25:36;;;;;;;;;;;;;;;19.22;43.20;102376.03;5127532;28;19923;-67
2023/04/30 08:28:01;;;;;;;;;;;;;;;19.77;43.01;102460.22;5135077;27;19923;-69
2023/04/30 08:30:26;;;;;;;;;;;;;;;19.78;42.95;102451.13;5131300;27;19918;-69
2023/04/30 08:32:51;;;;;;;;;;;;;;;19.78;43.12;102453.81;5139637;27;19960;-71
2023/04/30 08:35:17;;;;;;;;;;;;;;;19.78;43.10;102456.50;5132698;27;19920;-71
2023/04/30 08:37:42;;;;;;;;;;;;;;;19.80;43.12;102456.41;5136976;27;19958;-72
2023/04/30 08:40:08;;;;;;;;;;;;;;;19.81;43.33;102460.78;5131228;27;19922;-72
2023/04/30 08:42:35;;;;;;;;;;;;;;;19.82;43.54;102466.03;5128553;27;19918;-72
2023/04/30 08:45:00;;;;;;;;;;;;;;;19.82;43.52;102454.41;5134935;27;19915;-71
2023/04/30 08:47:25;;;;;;;;;;;;;;;19.83;43.30;102454.25;5115025;27;20025;-72
2023/04/30 08:49:51;;;;;;;;;;;;;;;19.85;43.45;102462.22;5131621;27;19919;-73
2023/04/30 08:52:16;;;;;;;;;;;;;;;19.86;43.29;102466.63;5135365;27;19927;-71
2023/04/30 08:54:41;;;;;;;;;;;;;;;19.86;43.30;102456.69;5131354;27;19916;-72
2023/04/30 08:57:06;;;;;;;;;;;;;;;19.87;43.27;102461.09;5116886;27;19922;-71
2023/04/30 08:59:32;;;;;;;;;;;;;;;19.88;43.72;102462.81;5135242;27;19975;-72
2023/04/30 09:01:58;;;;;;;;;;;;;;;19.89;43.75;102467.22;5113569;27;19963;-71
2023/04/30 09:04:23;;;;;;;;;;;;;;;19.89;43.47;102459.13;5135372;27;19923;-71
2023/04/30 09:06:51;;;;;;;;;;;;;;;19.90;43.70;102457.28;5132752;27;19912;-72
2023/04/30 09:09:16;;;;;;;;;;;;;;;19.91;43.63;102458.97;5133659;27;20356;-72
2023/04/30 09:11:41;;;;;;;;;;;;;;;19.91;43.45;102453.56;5134226;27;19923;-73
2023/04/30 09:14:07;;;;;;;;;;;;;;;19.91;43.48;102443.63;5131970;27;19915;-71
2023/04/30 09:17:01;;;;;;;;;;;;;;;19.91;43.48;102445.47;5111685;27;19916;-71
2023/04/30 09:19:28;;;;;;;;;;;;;;;19.93;43.39;102448.91;5121015;27;19997;-72
2023/04/30 09:21:53;;;;;;;;;;;;;;;19.93;43.38;102443.50;5116246;27;19918;-72
2023/04/30 09:24:18;;;;;;;;;;;;;;;19.94;43.49;102437.97;5127771;27;19915;-71
2023/04/30 09:26:45;;;;;;;;;;;;;;;19.94;43.39;102446.06;5138231;27;19941;-71
2023/04/30 09:29:11;;;;;;;;;;;;;;;19.95;43.62;102436.97;5114104;27;19920;-70
2023/04/30 09:31:36;;;;;;;;;;;;;;;19.96;43.42;102433.28;5145023;27;19907;-70
2023/04/30 09:34:02;;;;;;;;;;;;;;;19.96;43.61;102430.59;5135095;27;19987;-71
2023/04/30 09:36:28;;;;;;;;;;;;;;;19.97;43.62;102432.28;5130827;27;19915;-72
2023/04/30 09:38:53;;;;;;;;;;;;;;;19.97;43.62;102426.88;5135984;27;19916;-72
2023/04/30 09:41:22;;;;;;;;;;;;;;;20.00;43.87;102430.28;5131506;27;19938;-71
2023/04/30 09:43:47;;;;;;;;;;;;;;;20.01;43.69;102423.88;5111284;28;19912;-71
2023/04/30 09:46:13;;;;;;;;;;;;;;;20.02;44.00;102426.47;5127577;27;19915;-71
2023/04/30 09:48:40;;;;;;;;;;;;;;;20.04;43.80;102420.91;5134249;27;19922;-71
2023/04/30 09:51:05;;;;;;;;;;;;;;;20.04;44.16;102419.06;5116494;27;20428;-71
2023/04/30 09:53:30;;;;;;;;;;;;;;;20.05;43.97;102420.81;5133427;27;19916;-69
2023/04/30 09:55:55;;;;;;;;;;;;;;;20.06;44.09;102422.50;5133796;27;19933;-70
2023/04/30 09:58:21;;;;;;;;;;;;;;;20.06;44.08;102414.41;5117470;27;20462;-70
2023/04/30 10:00:48;;;;;;;;;;;;;;;20.08;44.48;102411.53;5125858;27;19967;-71
2023/04/30 10:03:13;;;;;;;;;;;;;;;20.08;44.47;102412.41;5127409;27;20886;-72
2023/04/30 10:05:45;;;;;;;;;;;;;;;20.09;44.32;102411.44;5116060;27;19923;-71
2023/04/30 10:08:17;;;;;;;;;;;;;;;20.10;44.50;102406.88;5112035;28;19920;-71
2023/04/30 10:10:42;;;;;;;;;;;;;;;20.11;44.74;102404.03;5123442;27;19923;-72
2023/04/30 10:13:12;;;;;;;;;;;;;;;20.11;44.63;102408.56;5116564;27;19915;-72
2023/04/30 10:15:38;;;;;;;;;;;;;;;20.12;44.49;102403.03;5115333;27;19923;-72
2023/04/30 10:18:04;;;;;;;;;;;;;;;20.14;44.79;102408.31;5112634;27;20280;-72
2023/04/30 10:20:30;;;;;;;;;;;;;;;20.14;44.51;102392.94;5133508;27;19923;-72
2023/04/30 10:22:55;;;;;;;;;;;;;;;20.16;44.33;102395.50;5133621;27;19919;-71
2023/04/30 10:25:22;;;;;;;;;;;;;;;20.17;44.74;102397.19;5115479;27;20012;-71
2023/04/30 10:27:47;;;;;;;;;;;;;;;20.18;44.47;102391.69;5115394;28;20332;-71
2023/04/30 10:30:12;;;;;;;;;;;;;;;20.19;44.39;102385.28;5132593;27;19941;-71
2023/04/30 10:32:40;;;;;;;;;;;;;;;20.20;44.79;102384.28;5116989;27;19919;-71
2023/04/30 10:35:12;;;;;;;;;;;;;;;20.22;44.54;102386.84;5118205;27;19935;-71
2023/04/30 10:37:39;;;;;;;;;;;;;;;20.25;44.38;102383.00;5134097;27;19920;-72
2023/04/30 10:40:04;;;;;;;;;;;;;;;20.26;44.69;102379.28;5114325;28;19919;-72
2023/04/30 10:42:30;;;;;;;;;;;;;;;20.28;44.57;102374.63;5115181;27;19919;-71
2023/04/30 10:44:56;;;;;;;;;;;;;;;20.29;44.63;102371.75;5130471;27;19916;-71
2023/04/30 10:47:26;;;;;;;;;;;;;;;20.30;44.32;102365.34;5114774;27;19916;-71
2023/04/30 10:49:52;;;;;;;;;;;;;;;20.33;44.53;102367.78;5115616;28;20023;-71
2023/04/30 10:52:25;;;;;;;;;;;;;;;20.35;44.15;102367.66;5130001;27;20052;-71
2023/04/30 10:54:50;;;;;;;;;;;;;;;20.36;44.39;102359.41;5119010;27;19912;-72
2023/04/30 10:57:19;;;;;;;;;;;;;;;20.38;44.37;102357.41;5128844;27;19912;-72
2023/04/30 10:59:50;;;;;;;;;;;;;;;20.40;43.99;102358.13;5122805;27;19933;-71
2023/04/30 11:02:18;;;;;;;;;;;;;;;20.41;44.26;102354.41;5112935;27;20377;-71
2023/04/30 11:05:02;;;;;;;;;;;;;;;20.43;44.13;102355.16;5111007;28;19963;-71
2023/04/30 11:07:27;;;;;;;;;;;;;;;20.44;43.89;102354.13;5131527;27;19911;-71
2023/04/30 11:09:53;;;;;;;;;;;;;;;20.45;44.07;102341.47;5121170;28;19920;-71
2023/04/30 11:12:27;;;;;;;;;;;;;;;20.46;44.09;102338.63;5111755;27;19912;-72
2023/04/30 11:14:52;;;;;;;;;;;;;;;20.47;44.08;102340.34;5132794;27;20285;-71
2023/04/30 11:17:21;;;;;;;;;;;;;;;20.49;43.75;102332.13;5112906;27;19990;-71
2023/04/30 11:19:50;;;;;;;;;;;;;;;20.50;43.99;102336.53;5130197;27;19947;-71
2023/04/30 11:22:16;;;;;;;;;;;;;;;20.52;43.89;102325.56;5118661;28;19920;-71
2023/04/30 11:24:51;;;;;;;;;;;;;;;20.53;43.96;102327.28;5128357;28;20308;-71
2023/04/30 11:27:20;;;;;;;;;;;;;;;20.54;43.94;102316.31;5124943;28;19919;-71
2023/04/30 11:29:45;;;;;;;;;;;;;;;20.55;43.75;102320.72;5130347;28;19924;-71
2023/04/30 11:32:10;;;;;;;;;;;;;;;20.57;44.08;102323.31;5124685;28;19949;-71
2023/04/30 11:34:36;;;;;;;;;;;;;;;20.57;43.83;102318.75;5115088;28;20360;-72
2023/04/30 11:37:01;;;;;;;;;;;;;;;20.58;44.01;102322.28;5110951;28;19932;-71
2023/04/30 11:39:27;;;;;;;;;;;;;;;20.60;44.10;102314.88;5113371;28;19922;-71
2023/04/30 11:41:52;;;;;;;;;;;;;;;20.60;44.10;102310.34;5128429;28;19912;-71
2023/04/30 11:44:26;;;;;;;;;;;;;;;20.62;44.09;102307.50;5131584;28;19987;-71
2023/04/30 11:46:51;;;;;;;;;;;;;;;20.64;44.17;102300.06;5126944;28;19918;-71
2023/04/30 11:49:17;;;;;;;;;;;;;;;20.65;44.29;102297.25;5136020;27;19919;-71
2023/04/30 11:51:42;;;;;;;;;;;;;;;20.66;44.15;102298.94;5132543;27;20056;-71
2023/04/30 11:54:07;;;;;;;;;;;;;;;20.68;44.15;102296.09;5123676;28;19918;-71
2023/04/30 11:56:32;;;;;;;;;;;;;;;20.21;44.17;102205.03;5113675;28;19912;-71
2023/04/30 11:58:57;;;;;;;;;;;;;;;20.72;44.24;102294.78;5110694;28;19912;-71
2023/04/30 12:01:25;;;;;;;;;;;;;;;20.74;44.22;102289.25;5131443;28;19923;-71
2023/04/30 12:03:51;;;;;;;;;;;;;;;20.75;43.99;102280.16;5123656;28;19947;-71
2023/04/30 12:06:27;;;;;;;;;;;;;;;20.76;44.23;102285.41;5128385;27;19950;-71
2023/04/30 12:08:53;;;;;;;;;;;;;;;20.78;44.19;102278.00;5134024;27;19915;-71
2023/04/30 12:11:23;;;;;;;;;;;;;;;20.79;44.10;102271.59;5136934;27;20001;-71
2023/04/30 12:13:52;;;;;;;;;;;;;;;20.82;43.95;102281.28;5133633;27;19919;-71
2023/04/30 12:16:18;;;;;;;;;;;;;;;20.83;44.27;102280.25;5124436;28;19923;-71
2023/04/30 12:18:43;;;;;;;;;;;;;;;20.85;44.19;102276.38;5134202;27;19915;-71
2023/04/30 12:21:09;;;;;;;;;;;;;;;20.85;44.46;102276.38;5129343;27;19915;-71
2023/04/30 12:23:34;;;;;;;;;;;;;;;20.88;44.29;102272.56;5118654;27;19911;-71
2023/04/30 12:25:59;;;;;;;;;;;;;;;20.89;44.48;102271.53;5126907;27;19947;-71
2023/04/30 12:28:24;;;;;;;;;;;;;;;20.90;44.29;102271.41;5119873;27;19920;-71
2023/04/30 12:30:49;;;;;;;;;;;;;;;20.91;44.39;102273.13;5133191;27;19919;-71